createdAt,value
2023-03-26T00:01:17.312Z,8.63
2023-03-26T00:03:53.498Z,8.95
2023-03-26T00:06:29.026Z,11.73
2023-03-26T00:08:57.556Z,9.05
2023-03-26T00:11:27.851Z,8.27
2023-03-26T00:13:57.726Z,6.32
2023-03-26T00:16:28.229Z,7.50
2023-03-26T00:18:55.741Z,9.73
2023-03-26T00:21:27.724Z,9.63
2023-03-26T00:23:56.266Z,8.30
2023-03-26T00:26:24.020Z,12.93
2023-03-26T00:28:50.997Z,9.90
2023-03-26T00:31:18.114Z,11.63
2023-03-26T00:33:44.828Z,8.07
2023-03-26T00:36:15.274Z,10.52
2023-03-26T00:38:43.195Z,9.38
2023-03-26T00:41:25.009Z,10.40
2023-03-26T00:43:57.494Z,11.13
2023-03-26T00:46:26.238Z,8.98
2023-03-26T00:48:53.652Z,8.80
2023-03-26T00:51:21.647Z,11.45
2023-03-26T00:53:49.993Z,9.20
2023-03-26T00:56:17.705Z,12.27
2023-03-26T00:58:46.060Z,10.30
2023-03-26T01:01:16.366Z,8.75
2023-03-26T01:03:53.628Z,10.82
2023-03-26T01:06:35.914Z,9.60
2023-03-26T01:09:18.753Z,9.45
2023-03-26T01:11:48.748Z,9.57
2023-03-26T01:14:19.187Z,10.02
2023-03-26T01:16:52.151Z,9.75
2023-03-26T01:19:31.646Z,8.60
2023-03-26T01:21:59.065Z,6.97
2023-03-26T01:24:26.256Z,8.38
2023-03-26T01:27:43.365Z,6.90
2023-03-26T01:30:17.151Z,10.48
2023-03-26T01:32:51.096Z,6.10
2023-03-26T01:35:30.772Z,7.50
2023-03-26T01:38:23.045Z,8.82
2023-03-26T01:41:19.636Z,9.57
2023-03-26T01:43:54.197Z,6.95
2023-03-26T01:46:23.818Z,6.97
2023-03-26T01:48:51.893Z,8.77
2023-03-26T01:51:44.967Z,5.75
2023-03-26T01:54:17.149Z,6.90
2023-03-26T01:57:05.952Z,5.47
2023-03-26T01:59:47.664Z,5.05
2023-03-26T02:02:26.817Z,5.13
2023-03-26T02:05:02.723Z,5.18
2023-03-26T02:07:51.047Z,5.45
2023-03-26T02:10:25.669Z,5.22
2023-03-26T02:12:53.164Z,8.18
2023-03-26T02:15:20.948Z,6.78
2023-03-26T02:17:49.250Z,6.65
2023-03-26T02:20:18.855Z,8.23
2023-03-26T02:22:47.256Z,5.70
2023-03-26T02:25:20.465Z,8.82
2023-03-26T02:27:50.332Z,10.45
2023-03-26T02:30:21.648Z,9.15
2023-03-26T02:32:52.336Z,10.48
2023-03-26T02:35:21.917Z,6.72
2023-03-26T02:37:52.668Z,10.77
2023-03-26T02:40:22.400Z,8.35
2023-03-26T02:42:50.544Z,12.40
2023-03-26T02:45:17.431Z,10.00
2023-03-26T02:48:20.415Z,9.93
2023-03-26T02:50:54.658Z,9.82
2023-03-26T02:53:41.278Z,14.02
2023-03-26T02:56:37.299Z,9.13
2023-03-26T02:59:17.841Z,13.93
2023-03-26T03:01:48.029Z,8.60
2023-03-26T03:04:17.962Z,5.80
2023-03-26T03:06:45.497Z,4.82
2023-03-26T03:09:12.955Z,6.13
2023-03-26T03:12:08.866Z,3.38
2023-03-26T03:14:35.780Z,5.00
2023-03-26T03:17:02.469Z,4.90
2023-03-26T03:19:30.946Z,3.63
2023-03-26T03:21:57.869Z,7.15
2023-03-26T03:24:24.568Z,4.20
2023-03-26T03:26:55.015Z,5.82
2023-03-26T03:29:33.216Z,4.75
2023-03-26T03:32:22.473Z,5.03
2023-03-26T03:34:51.502Z,6.07
2023-03-26T03:37:19.442Z,8.98
2023-03-26T03:39:54.213Z,8.82
2023-03-26T03:42:22.919Z,7.28
2023-03-26T03:44:54.623Z,8.45
2023-03-26T03:47:39.979Z,7.43
2023-03-26T03:50:07.860Z,9.55
2023-03-26T03:52:36.025Z,6.57
2023-03-26T03:55:02.967Z,6.38
2023-03-26T03:57:43.194Z,9.10
2023-03-26T04:00:15.552Z,7.40
2023-03-26T04:02:43.081Z,4.82
2023-03-26T04:05:11.714Z,10.32
2023-03-26T04:07:45.224Z,6.57
2023-03-26T04:10:27.018Z,7.70
2023-03-26T04:13:29.361Z,6.07
2023-03-26T04:16:10.398Z,6.07
2023-03-26T04:18:38.238Z,10.40
2023-03-26T04:21:12.711Z,7.60
2023-03-26T04:23:39.588Z,7.00
2023-03-26T04:26:20.185Z,8.02
2023-03-26T04:29:18.198Z,7.13
2023-03-26T04:31:47.193Z,9.35
2023-03-26T04:34:26.108Z,6.80
2023-03-26T04:37:02.924Z,7.13
2023-03-26T04:39:34.111Z,8.20
2023-03-26T04:42:37.771Z,8.70
2023-03-26T04:45:38.482Z,10.77
2023-03-26T04:48:07.315Z,9.77
2023-03-26T04:50:34.500Z,8.25
2023-03-26T04:53:02.422Z,10.60
2023-03-26T04:56:26.415Z,9.95
2023-03-26T04:59:26.275Z,10.85
2023-03-26T05:01:55.286Z,8.38
2023-03-26T05:04:29.467Z,7.60
2023-03-26T05:06:58.442Z,7.10
2023-03-26T05:09:38.286Z,6.00
2023-03-26T05:12:13.519Z,8.95
2023-03-26T05:15:03.582Z,8.23
2023-03-26T05:17:55.452Z,7.45
2023-03-26T05:20:36.917Z,6.07
2023-03-26T05:23:07.423Z,7.13
2023-03-26T05:25:41.248Z,8.73
2023-03-26T05:28:15.486Z,6.00
2023-03-26T05:30:53.831Z,6.57
2023-03-26T05:33:22.779Z,4.47
2023-03-26T05:36:13.313Z,8.95
2023-03-26T05:38:47.331Z,4.47
2023-03-26T05:41:18.366Z,5.30
2023-03-26T05:43:47.858Z,7.32
2023-03-26T05:46:27.259Z,6.15
2023-03-26T05:48:54.087Z,6.38
2023-03-26T05:51:23.458Z,7.35
2023-03-26T05:54:00.316Z,7.38
2023-03-26T05:56:32.759Z,5.95
2023-03-26T05:59:25.658Z,7.63
2023-03-26T06:02:12.531Z,8.63
2023-03-26T06:04:40.856Z,5.40
2023-03-26T06:07:27.115Z,7.78
2023-03-26T06:10:14.600Z,6.55
2023-03-26T06:12:45.764Z,6.82
2023-03-26T06:15:12.912Z,5.43
2023-03-26T06:20:47.980Z,6.80
2023-03-26T06:23:28.198Z,7.45
2023-03-26T06:26:15.515Z,8.60
2023-03-26T06:29:14.776Z,8.55
2023-03-26T06:31:58.124Z,11.20
2023-03-26T06:34:35.867Z,12.60
2023-03-26T06:37:02.546Z,9.52
2023-03-26T06:39:30.219Z,9.57
2023-03-26T06:42:17.413Z,13.00
2023-03-26T06:44:57.353Z,12.07
2023-03-26T06:47:47.456Z,8.00
2023-03-26T06:50:43.857Z,11.18
2023-03-26T06:53:26.648Z,9.88
2023-03-26T06:56:08.883Z,7.30
2023-03-26T06:59:14.104Z,9.95
2023-03-26T07:01:59.390Z,10.43
2023-03-26T07:04:44.466Z,14.77
2023-03-26T07:07:29.414Z,12.20
2023-03-26T07:10:15.102Z,10.00
2023-03-26T07:13:11.084Z,10.20
2023-03-26T07:15:56.446Z,13.65
2023-03-26T07:18:23.106Z,9.07
2023-03-26T07:20:52.489Z,9.48
2023-03-26T07:23:21.352Z,12.77
2023-03-26T07:25:57.240Z,11.50
2023-03-26T07:29:04.436Z,10.15
2023-03-26T07:32:18.876Z,12.38
2023-03-26T07:35:23.413Z,9.55
2023-03-26T07:38:41.254Z,9.48
2023-03-26T07:41:51.083Z,12.43
2023-03-26T07:45:03.239Z,10.88
2023-03-26T07:47:53.881Z,9.45
2023-03-26T07:50:31.561Z,15.43
2023-03-26T07:53:21.624Z,16.60
2023-03-26T07:56:15.986Z,15.20
2023-03-26T07:59:19.368Z,13.18
2023-03-26T08:02:34.464Z,16.02
2023-03-26T08:05:57.917Z,14.07
2023-03-26T08:09:06.769Z,16.20
2023-03-26T08:11:54.228Z,13.25
2023-03-26T08:14:36.420Z,13.50
2023-03-26T08:17:14.161Z,11.38
2023-03-26T08:19:49.106Z,15.00
2023-03-26T08:22:56.644Z,14.10
2023-03-26T08:25:35.125Z,14.40
2023-03-26T08:28:27.851Z,15.40
2023-03-26T08:30:55.221Z,13.82
2023-03-26T08:33:25.907Z,12.52
2023-03-26T08:35:52.947Z,12.30
2023-03-26T08:38:20.953Z,11.38
2023-03-26T08:43:51.566Z,15.15
2023-03-26T08:46:38.868Z,13.10
2023-03-26T08:49:46.208Z,11.75
2023-03-26T08:53:03.229Z,11.55
2023-03-26T08:55:38.240Z,13.55
2023-03-26T08:58:33.213Z,9.77
2023-03-26T09:01:30.966Z,7.95
2023-03-26T09:04:40.335Z,14.52
2023-03-26T09:07:40.858Z,14.38
2023-03-26T09:10:07.455Z,15.02
2023-03-26T09:13:29.413Z,15.77
2023-03-26T09:16:10.033Z,11.77
2023-03-26T09:19:02.396Z,12.80
2023-03-26T09:21:44.040Z,12.75
2023-03-26T09:24:24.341Z,9.60
2023-03-26T09:26:59.839Z,13.02
2023-03-26T09:29:54.316Z,9.05
2023-03-26T09:32:59.774Z,12.10
2023-03-26T09:36:08.737Z,9.73
2023-03-26T09:38:57.548Z,10.20
2023-03-26T09:41:48.205Z,14.27
2023-03-26T09:44:44.222Z,12.90
2023-03-26T09:47:19.819Z,8.93
2023-03-26T09:50:14.214Z,9.00
2023-03-26T09:53:07.566Z,9.85
2023-03-26T09:55:51.100Z,8.85
2023-03-26T09:58:41.340Z,12.85
2023-03-26T10:01:25.211Z,9.05
2023-03-26T10:04:03.891Z,12.60
2023-03-26T10:06:37.177Z,11.80
2023-03-26T10:09:28.428Z,10.45
2023-03-26T10:12:20.604Z,9.73
2023-03-26T10:15:04.375Z,10.27
2023-03-26T10:17:46.717Z,8.60
2023-03-26T10:20:36.225Z,8.85
2023-03-26T10:23:18.561Z,11.75
2023-03-26T10:25:47.845Z,11.88
2023-03-26T10:28:20.288Z,11.48
2023-03-26T10:31:29.093Z,9.82
2023-03-26T10:34:28.728Z,9.95
2023-03-26T10:37:32.486Z,11.13
2023-03-26T10:40:32.458Z,9.75
2023-03-26T10:43:31.382Z,9.07
2023-03-26T10:46:24.921Z,10.35
2023-03-26T10:49:16.205Z,10.98
2023-03-26T10:51:50.452Z,12.55
2023-03-26T10:54:28.902Z,12.52
2023-03-26T10:56:56.670Z,11.35
2023-03-26T10:59:27.070Z,9.02
2023-03-26T11:02:01.337Z,8.07
2023-03-26T11:04:46.373Z,9.32
2023-03-26T11:07:31.694Z,11.60
2023-03-26T11:10:11.879Z,11.65
2023-03-26T11:13:06.322Z,12.98
2023-03-26T11:15:35.897Z,9.82
2023-03-26T11:18:18.922Z,8.80
2023-03-26T11:20:54.770Z,10.82
2023-03-26T11:24:06.049Z,12.20
2023-03-26T11:27:14.902Z,10.40
2023-03-26T11:30:35.682Z,13.23
2023-03-26T11:33:06.826Z,15.52
2023-03-26T11:35:42.714Z,11.23
2023-03-26T11:38:23.386Z,13.13
2023-03-26T11:40:54.339Z,7.88
2023-03-26T11:43:39.859Z,7.93
2023-03-26T11:46:12.213Z,10.10
2023-03-26T11:48:45.059Z,6.82
2023-03-26T11:51:37.658Z,12.15
2023-03-26T11:54:07.843Z,10.48
2023-03-26T11:57:04.389Z,11.45
2023-03-26T11:59:56.511Z,11.07
2023-03-26T12:02:34.043Z,10.45
2023-03-26T12:05:24.968Z,10.88
2023-03-26T12:07:59.854Z,7.28
2023-03-26T12:10:37.713Z,12.05
2023-03-26T12:13:21.215Z,10.55
2023-03-26T12:15:48.215Z,9.27
2023-03-26T12:18:26.393Z,10.43
2023-03-26T12:21:22.678Z,9.57
2023-03-26T12:24:02.529Z,9.83
2023-03-26T12:26:41.690Z,9.38
2023-03-26T12:31:46.890Z,9.40
2023-03-26T12:34:19.397Z,8.98
2023-03-26T12:36:52.330Z,11.77
2023-03-26T12:40:09.973Z,12.93
2023-03-26T12:44:46.779Z,12.17
2023-03-26T12:45:21.748Z,9.45
2023-03-26T12:47:58.926Z,9.73
2023-03-26T12:50:59.261Z,8.57
2023-03-26T12:53:50.536Z,9.95
2023-03-26T12:56:37.005Z,7.43
2023-03-26T12:59:09.419Z,9.40
2023-03-26T13:01:54.633Z,8.98
2023-03-26T13:04:24.240Z,8.80
2023-03-26T13:07:06.535Z,8.57
2023-03-26T13:10:16.106Z,9.35
2023-03-26T13:13:05.080Z,12.70
2023-03-26T13:15:37.010Z,8.43
2023-03-26T13:18:23.261Z,10.95
2023-03-26T13:21:00.570Z,9.90
2023-03-26T13:23:46.045Z,6.95
2023-03-26T13:26:12.621Z,9.95
2023-03-26T13:28:48.813Z,9.65
2023-03-26T13:34:34.047Z,10.23
2023-03-26T13:37:04.456Z,7.32
2023-03-26T13:39:51.671Z,7.45
2023-03-26T13:42:21.827Z,7.07
2023-03-26T13:45:04.532Z,10.27
2023-03-26T13:47:36.773Z,9.45
2023-03-26T13:50:09.853Z,8.50
2023-03-26T13:52:55.987Z,12.60
2023-03-26T13:55:43.491Z,10.10
2023-03-26T13:58:34.636Z,8.82
2023-03-26T14:01:18.246Z,11.00
2023-03-26T14:03:58.048Z,9.38
2023-03-26T14:06:57.574Z,9.52
2023-03-26T14:09:31.808Z,9.63
2023-03-26T14:12:32.109Z,9.75
2023-03-26T14:15:05.852Z,9.50
2023-03-26T14:17:47.452Z,9.65
2023-03-26T14:20:25.549Z,10.85
2023-03-26T14:23:14.697Z,11.05
2023-03-26T14:26:06.751Z,6.22
2023-03-26T14:28:55.117Z,8.18
2023-03-26T14:31:34.230Z,9.90
2023-03-26T14:34:34.309Z,9.70
2023-03-26T14:37:06.087Z,12.15
2023-03-26T14:39:44.171Z,10.60
2023-03-26T14:42:31.952Z,12.00
2023-03-26T14:45:23.413Z,13.68
2023-03-26T14:48:17.667Z,10.38
2023-03-26T14:51:01.400Z,9.45
2023-03-26T14:53:33.446Z,9.45
2023-03-26T14:56:15.678Z,10.90
2023-03-26T14:59:03.508Z,11.48
2023-03-26T15:02:07.410Z,11.95
2023-03-26T15:05:08.313Z,9.85
2023-03-26T15:08:05.765Z,9.55
2023-03-26T15:10:45.354Z,10.57
2023-03-26T15:13:43.085Z,10.27
2023-03-26T15:16:21.030Z,14.05
2023-03-26T15:19:09.417Z,10.45
2023-03-26T15:21:45.231Z,9.98
2023-03-26T15:24:17.907Z,9.50
2023-03-26T15:26:50.117Z,9.75
2023-03-26T15:29:45.798Z,9.90
2023-03-26T15:32:45.773Z,9.50
2023-03-26T15:35:21.371Z,8.27
2023-03-26T15:37:54.264Z,9.45
2023-03-26T15:40:43.000Z,8.05
2023-03-26T15:43:12.949Z,9.63
2023-03-26T15:46:07.395Z,10.48
2023-03-26T15:49:00.117Z,7.22
2023-03-26T15:52:03.834Z,9.38
2023-03-26T15:54:37.065Z,9.13
2023-03-26T15:57:16.654Z,9.05
2023-03-26T16:00:22.571Z,10.07
2023-03-26T16:02:55.353Z,10.10
2023-03-26T16:05:40.057Z,9.52
2023-03-26T16:08:14.762Z,7.85
2023-03-26T16:11:00.333Z,8.57
2023-03-26T16:13:34.855Z,9.45
2023-03-26T16:16:04.279Z,8.80
2023-03-26T16:18:37.729Z,9.90
2023-03-26T16:21:31.466Z,10.48
2023-03-26T16:24:02.166Z,9.90
2023-03-26T16:26:31.721Z,11.43
2023-03-26T16:29:28.002Z,11.57
2023-03-26T16:32:09.808Z,13.27
2023-03-26T16:34:59.711Z,8.82
2023-03-26T16:37:33.645Z,8.73
2023-03-26T16:40:18.683Z,8.82
2023-03-26T16:43:16.359Z,10.80
2023-03-26T16:46:20.384Z,8.23
2023-03-26T16:48:47.048Z,11.68
2023-03-26T16:51:42.237Z,13.30
2023-03-26T16:54:47.886Z,11.40
2023-03-26T16:57:23.753Z,10.77
2023-03-26T17:00:24.575Z,11.23
2023-03-26T17:03:37.664Z,9.25
2023-03-26T17:06:45.708Z,10.32
2023-03-26T17:09:24.706Z,6.13
2023-03-26T17:12:02.763Z,9.80
2023-03-26T17:15:16.404Z,8.00
2023-03-26T17:18:07.021Z,7.25
2023-03-26T17:20:39.452Z,10.27
2023-03-26T17:23:14.613Z,11.40
2023-03-26T17:25:54.345Z,10.50
2023-03-26T17:28:51.577Z,7.88
2023-03-26T17:31:56.933Z,9.18
2023-03-26T17:34:32.620Z,10.50
2023-03-26T17:37:00.922Z,7.15
2023-03-26T17:39:39.703Z,8.80
2023-03-26T17:42:25.632Z,9.68
2023-03-26T17:45:01.227Z,11.33
2023-03-26T17:47:42.240Z,8.55
2023-03-26T17:50:19.693Z,8.30
2023-03-26T17:52:55.212Z,6.68
2023-03-26T17:55:31.316Z,8.93
2023-03-26T18:00:51.052Z,7.75
2023-03-26T18:03:30.844Z,6.65
2023-03-26T18:06:07.232Z,7.43
2023-03-26T18:08:41.488Z,6.30
2023-03-26T18:11:17.003Z,8.20
2023-03-26T18:13:52.548Z,8.27
2023-03-26T18:16:39.084Z,5.32
2023-03-26T18:19:22.025Z,10.52
2023-03-26T18:21:51.945Z,5.20
2023-03-26T18:24:27.607Z,8.50
2023-03-26T18:26:58.498Z,7.07
2023-03-26T18:29:35.272Z,4.35
2023-03-26T18:32:11.447Z,5.10
2023-03-26T18:37:17.661Z,5.28
2023-03-26T18:39:57.617Z,4.03
2023-03-26T18:42:25.335Z,3.00
2023-03-26T18:44:53.934Z,3.67
2023-03-26T18:47:29.424Z,3.35
2023-03-26T18:49:58.127Z,3.53
2023-03-26T18:52:27.914Z,4.40
2023-03-26T18:54:56.698Z,3.30
2023-03-26T18:57:26.114Z,3.78
2023-03-26T18:59:55.866Z,2.33
2023-03-26T19:02:24.787Z,1.92
2023-03-26T19:04:54.324Z,4.35
2023-03-26T19:07:26.492Z,2.72
2023-03-26T19:09:56.377Z,2.70
2023-03-26T19:12:28.876Z,3.67
2023-03-26T19:15:02.317Z,3.35
2023-03-26T19:17:34.443Z,4.57
2023-03-26T19:20:01.669Z,2.70
2023-03-26T19:22:30.427Z,2.83
2023-03-26T19:25:01.281Z,2.92
2023-03-26T19:27:28.330Z,1.88
2023-03-26T19:29:55.190Z,3.55
2023-03-26T19:32:32.387Z,2.17
2023-03-26T19:35:01.199Z,3.97
2023-03-26T19:37:30.714Z,2.38
2023-03-26T19:40:07.156Z,3.13
2023-03-26T19:42:42.884Z,2.63
2023-03-26T19:45:17.765Z,5.13
2023-03-26T19:47:50.409Z,2.10
2023-03-26T19:50:29.345Z,2.28
2023-03-26T19:53:17.013Z,2.53
2023-03-26T19:55:58.969Z,1.58
2023-03-26T19:58:26.498Z,2.15
2023-03-26T20:00:55.649Z,1.75
2023-03-26T20:03:29.227Z,1.75
2023-03-26T20:05:56.390Z,2.22
2023-03-26T20:08:27.069Z,2.63
2023-03-26T20:10:56.554Z,1.92
2023-03-26T20:13:23.373Z,2.75
2023-03-26T20:16:07.515Z,1.80
2023-03-26T20:18:37.628Z,2.50
2023-03-26T20:21:12.280Z,3.10
2023-03-26T20:23:40.732Z,2.53
2023-03-26T20:26:12.082Z,1.05
2023-03-26T20:28:47.492Z,2.05
2023-03-26T20:31:26.235Z,2.65
2023-03-26T20:33:54.207Z,2.70
2023-03-26T20:36:34.008Z,3.25
2023-03-26T20:39:05.974Z,2.45
2023-03-26T20:45:29.825Z,2.17
2023-03-26T20:48:00.451Z,3.97
2023-03-26T20:50:50.781Z,6.78
2023-03-26T20:53:33.328Z,4.15
2023-03-26T20:56:33.229Z,3.42
2023-03-26T20:59:37.819Z,3.22
2023-03-26T21:02:15.180Z,2.80
2023-03-26T21:08:04.556Z,4.53
2023-03-26T21:18:23.403Z,4.43
2023-03-26T21:28:42.435Z,2.75
2023-03-26T21:34:39.666Z,5.15
2023-03-26T21:37:31.245Z,3.55
2023-03-26T21:40:19.033Z,5.03
2023-03-26T21:43:22.200Z,3.38
2023-03-26T21:46:07.752Z,4.30
2023-03-26T21:49:04.348Z,3.38
2023-03-26T21:51:41.262Z,2.42
2023-03-26T21:54:24.516Z,3.42
2023-03-26T21:57:10.622Z,4.20
2023-03-26T22:00:12.144Z,3.33
2023-03-26T22:02:42.897Z,5.05
2023-03-26T22:05:23.161Z,5.15
2023-03-26T22:08:14.505Z,5.53
2023-03-26T22:10:43.943Z,5.65
2023-03-26T22:13:18.961Z,8.60
2023-03-26T22:18:34.674Z,4.20
2023-03-26T22:21:04.179Z,3.45
2023-03-26T22:23:45.985Z,4.78
2023-03-26T22:26:15.640Z,5.30
2023-03-26T22:28:49.342Z,5.47
2023-03-26T22:31:53.926Z,7.13
2023-03-26T22:34:36.770Z,5.88
2023-03-26T22:41:58.606Z,6.95
2023-03-26T22:44:23.540Z,3.97
2023-03-26T22:46:54.426Z,5.43
2023-03-26T22:49:21.374Z,5.38
2023-03-26T22:51:48.241Z,7.55
2023-03-26T22:54:14.964Z,6.38
2023-03-26T22:56:41.712Z,5.60
2023-03-26T22:59:08.688Z,6.55
2023-03-26T23:01:36.142Z,5.30
2023-03-26T23:04:03.094Z,5.38
2023-03-26T23:06:29.925Z,4.75
2023-03-26T23:08:57.067Z,8.35
2023-03-26T23:11:23.980Z,3.28
2023-03-26T23:13:51.272Z,5.55
2023-03-26T23:16:19.179Z,4.32
2023-03-26T23:18:46.112Z,3.85
2023-03-26T23:21:15.213Z,4.10
2023-03-26T23:23:42.232Z,4.95
2023-03-26T23:26:08.913Z,6.88
2023-03-26T23:28:35.950Z,4.22
2023-03-26T23:31:05.720Z,4.95
2023-03-26T23:33:35.400Z,5.40
2023-03-26T23:36:08.736Z,5.68
2023-03-26T23:38:43.591Z,5.20
2023-03-26T23:41:14.840Z,4.30
2023-03-26T23:43:54.807Z,4.97
2023-03-26T23:46:33.107Z,5.13
2023-03-26T23:49:02.333Z,4.00
2023-03-26T23:51:32.733Z,4.45
2023-03-26T23:54:00.530Z,3.10
2023-03-26T23:56:30.301Z,5.05
2023-03-26T23:58:57.375Z,5.70
